sensor_id;sensor_type;location;lat;lon;timestamp;temperature;humidity
46037;DHT22;31769;49.304;8.428;2023-02-08T00:01:24;0.80;99.90
46037;DHT22;31769;49.304;8.428;2023-02-08T00:04:25;0.80;99.90
46037;DHT22;31769;49.304;8.428;2023-02-08T00:07:25;0.80;99.90
46037;DHT22;31769;49.304;8.428;2023-02-08T00:10:26;0.80;99.90
46037;DHT22;31769;49.304;8.428;2023-02-08T00:13:27;0.80;99.90
46037;DHT22;31769;49.304;8.428;2023-02-08T00:16:27;0.70;99.90
46037;DHT22;31769;49.304;8.428;2023-02-08T00:19:28;0.80;99.90
46037;DHT22;31769;49.304;8.428;2023-02-08T00:22:29;0.80;99.90
46037;DHT22;31769;49.304;8.428;2023-02-08T00:25:30;0.90;99.90
46037;DHT22;31769;49.304;8.428;2023-02-08T00:28:31;0.80;99.90
46037;DHT22;31769;49.304;8.428;2023-02-08T00:31:31;0.90;99.90
46037;DHT22;31769;49.304;8.428;2023-02-08T00:34:32;0.90;99.90
46037;DHT22;31769;49.304;8.428;2023-02-08T00:37:34;0.90;99.90
46037;DHT22;31769;49.304;8.428;2023-02-08T00:40:35;0.90;99.90
46037;DHT22;31769;49.304;8.428;2023-02-08T00:43:35;0.90;99.90
46037;DHT22;31769;49.304;8.428;2023-02-08T00:46:36;0.90;99.90
46037;DHT22;31769;49.304;8.428;2023-02-08T00:49:37;0.90;99.90
46037;DHT22;31769;49.304;8.428;2023-02-08T00:52:37;0.90;99.90
46037;DHT22;31769;49.304;8.428;2023-02-08T00:55:38;0.90;99.90
46037;DHT22;31769;49.304;8.428;2023-02-08T00:58:40;0.90;99.90
46037;DHT22;31769;49.304;8.428;2023-02-08T01:01:41;0.90;99.90
46037;DHT22;31769;49.304;8.428;2023-02-08T01:04:42;0.90;99.90
46037;DHT22;31769;49.304;8.428;2023-02-08T01:07:42;0.90;99.90
46037;DHT22;31769;49.304;8.428;2023-02-08T01:10:43;0.90;99.90
46037;DHT22;31769;49.304;8.428;2023-02-08T01:13:44;0.90;99.90
46037;DHT22;31769;49.304;8.428;2023-02-08T01:16:45;0.80;99.90
46037;DHT22;31769;49.304;8.428;2023-02-08T01:19:47;0.80;99.90
46037;DHT22;31769;49.304;8.428;2023-02-08T01:22:47;0.80;99.90
46037;DHT22;31769;49.304;8.428;2023-02-08T01:25:48;0.80;99.90
46037;DHT22;31769;49.304;8.428;2023-02-08T01:28:49;0.80;99.90
46037;DHT22;31769;49.304;8.428;2023-02-08T01:31:50;0.80;99.90
46037;DHT22;31769;49.304;8.428;2023-02-08T01:34:51;0.80;99.90
46037;DHT22;31769;49.304;8.428;2023-02-08T01:37:51;0.80;99.90
46037;DHT22;31769;49.304;8.428;2023-02-08T01:40:52;0.80;99.90
46037;DHT22;31769;49.304;8.428;2023-02-08T01:47:11;0.70;99.90
46037;DHT22;31769;49.304;8.428;2023-02-08T01:50:13;0.70;99.90
46037;DHT22;31769;49.304;8.428;2023-02-08T01:53:15;0.70;99.90
46037;DHT22;31769;49.304;8.428;2023-02-08T01:56:22;0.70;99.90
46037;DHT22;31769;49.304;8.428;2023-02-08T01:59:43;0.70;99.90
46037;DHT22;31769;49.304;8.428;2023-02-08T02:02:46;0.70;99.90
46037;DHT22;31769;49.304;8.428;2023-02-08T02:05:55;0.60;99.90
46037;DHT22;31769;49.304;8.428;2023-02-08T02:09:19;0.60;99.90
46037;DHT22;31769;49.304;8.428;2023-02-08T02:12:21;0.60;99.90
46037;DHT22;31769;49.304;8.428;2023-02-08T02:15:24;0.60;99.90
46037;DHT22;31769;49.304;8.428;2023-02-08T02:18:27;0.50;99.90
46037;DHT22;31769;49.304;8.428;2023-02-08T02:21:41;0.50;99.90
46037;DHT22;31769;49.304;8.428;2023-02-08T02:24:58;0.40;99.90
46037;DHT22;31769;49.304;8.428;2023-02-08T02:32:13;0.10;99.90
46037;DHT22;31769;49.304;8.428;2023-02-08T02:39:02;-0.10;99.90
46037;DHT22;31769;49.304;8.428;2023-02-08T02:42:34;-0.10;99.90
46037;DHT22;31769;49.304;8.428;2023-02-08T02:49:15;-0.20;99.90
46037;DHT22;31769;49.304;8.428;2023-02-08T02:52:30;-0.20;99.90
46037;DHT22;31769;49.304;8.428;2023-02-08T02:55:39;-0.30;99.90
46037;DHT22;31769;49.304;8.428;2023-02-08T02:58:40;-0.30;99.90
46037;DHT22;31769;49.304;8.428;2023-02-08T03:01:43;-0.40;99.90
46037;DHT22;31769;49.304;8.428;2023-02-08T03:04:50;-0.40;99.90
46037;DHT22;31769;49.304;8.428;2023-02-08T03:08:15;-0.50;99.90
46037;DHT22;31769;49.304;8.428;2023-02-08T03:11:19;-0.60;99.90
46037;DHT22;31769;49.304;8.428;2023-02-08T03:14:33;-0.60;99.90
46037;DHT22;31769;49.304;8.428;2023-02-08T03:18:03;-0.70;99.90
46037;DHT22;31769;49.304;8.428;2023-02-08T03:21:24;-0.70;99.90
46037;DHT22;31769;49.304;8.428;2023-02-08T03:31:29;-1.20;99.90
46037;DHT22;31769;49.304;8.428;2023-02-08T03:37:41;-1.00;99.90
46037;DHT22;31769;49.304;8.428;2023-02-08T03:40:46;-1.00;99.90
46037;DHT22;31769;49.304;8.428;2023-02-08T03:43:55;-1.00;99.90
46037;DHT22;31769;49.304;8.428;2023-02-08T03:47:18;-1.00;99.90
46037;DHT22;31769;49.304;8.428;2023-02-08T03:50:21;-1.00;99.90
46037;DHT22;31769;49.304;8.428;2023-02-08T03:53:23;-1.00;99.90
46037;DHT22;31769;49.304;8.428;2023-02-08T03:56:34;-0.90;99.90
46037;DHT22;31769;49.304;8.428;2023-02-08T03:59:42;-0.90;99.90
46037;DHT22;31769;49.304;8.428;2023-02-08T04:03:00;-1.00;99.90
46037;DHT22;31769;49.304;8.428;2023-02-08T04:06:03;-1.20;99.90
46037;DHT22;31769;49.304;8.428;2023-02-08T04:09:03;-1.20;99.90
46037;DHT22;31769;49.304;8.428;2023-02-08T04:12:04;-1.30;99.90
46037;DHT22;31769;49.304;8.428;2023-02-08T04:15:06;-1.20;99.90
46037;DHT22;31769;49.304;8.428;2023-02-08T04:18:06;-1.20;99.90
46037;DHT22;31769;49.304;8.428;2023-02-08T04:21:07;-1.30;99.90
46037;DHT22;31769;49.304;8.428;2023-02-08T04:24:08;-1.20;99.90
46037;DHT22;31769;49.304;8.428;2023-02-08T04:27:08;-1.30;99.90
46037;DHT22;31769;49.304;8.428;2023-02-08T04:30:09;-1.40;99.90
46037;DHT22;31769;49.304;8.428;2023-02-08T04:33:10;-1.50;99.90
46037;DHT22;31769;49.304;8.428;2023-02-08T04:36:12;-1.50;99.90
46037;DHT22;31769;49.304;8.428;2023-02-08T04:39:13;-1.50;99.90
46037;DHT22;31769;49.304;8.428;2023-02-08T04:42:13;-1.50;99.90
46037;DHT22;31769;49.304;8.428;2023-02-08T04:45:14;-1.50;99.90
46037;DHT22;31769;49.304;8.428;2023-02-08T04:48:15;-1.50;99.90
46037;DHT22;31769;49.304;8.428;2023-02-08T04:51:15;-1.50;99.90
46037;DHT22;31769;49.304;8.428;2023-02-08T04:54:16;-1.50;99.90
46037;DHT22;31769;49.304;8.428;2023-02-08T04:57:17;-1.50;99.90
46037;DHT22;31769;49.304;8.428;2023-02-08T05:00:17;-1.50;99.90
46037;DHT22;31769;49.304;8.428;2023-02-08T05:03:18;-1.50;99.90
46037;DHT22;31769;49.304;8.428;2023-02-08T05:06:19;-1.60;99.90
46037;DHT22;31769;49.304;8.428;2023-02-08T05:09:20;-1.60;99.90
46037;DHT22;31769;49.304;8.428;2023-02-08T05:12:20;-1.70;99.90
46037;DHT22;31769;49.304;8.428;2023-02-08T05:15:21;-1.80;99.90
46037;DHT22;31769;49.304;8.428;2023-02-08T05:18:22;-1.80;99.90
46037;DHT22;31769;49.304;8.428;2023-02-08T05:21:22;-1.80;99.90
46037;DHT22;31769;49.304;8.428;2023-02-08T05:24:23;-1.80;99.90
46037;DHT22;31769;49.304;8.428;2023-02-08T05:27:24;-1.80;99.90
46037;DHT22;31769;49.304;8.428;2023-02-08T05:30:25;-1.90;99.90
46037;DHT22;31769;49.304;8.428;2023-02-08T05:33:25;-2.20;99.90
46037;DHT22;31769;49.304;8.428;2023-02-08T05:36:26;-2.00;99.90
46037;DHT22;31769;49.304;8.428;2023-02-08T05:39:27;-1.90;99.90
46037;DHT22;31769;49.304;8.428;2023-02-08T05:42:27;-1.90;99.90
46037;DHT22;31769;49.304;8.428;2023-02-08T05:45:28;-1.80;99.90
46037;DHT22;31769;49.304;8.428;2023-02-08T05:48:30;-1.80;99.90
46037;DHT22;31769;49.304;8.428;2023-02-08T05:51:31;-1.80;99.90
46037;DHT22;31769;49.304;8.428;2023-02-08T05:54:31;-1.70;99.90
46037;DHT22;31769;49.304;8.428;2023-02-08T05:57:32;-1.70;99.90
46037;DHT22;31769;49.304;8.428;2023-02-08T06:00:33;-1.80;99.90
46037;DHT22;31769;49.304;8.428;2023-02-08T06:03:33;-1.50;99.90
46037;DHT22;31769;49.304;8.428;2023-02-08T06:06:34;-1.50;99.90
46037;DHT22;31769;49.304;8.428;2023-02-08T06:09:35;-1.50;99.90
46037;DHT22;31769;49.304;8.428;2023-02-08T06:12:35;-1.60;99.90
46037;DHT22;31769;49.304;8.428;2023-02-08T06:15:36;-1.70;99.90
46037;DHT22;31769;49.304;8.428;2023-02-08T06:18:36;-1.70;99.90
46037;DHT22;31769;49.304;8.428;2023-02-08T06:21:37;-1.90;99.90
46037;DHT22;31769;49.304;8.428;2023-02-08T06:24:38;-1.90;99.90
46037;DHT22;31769;49.304;8.428;2023-02-08T06:27:39;-1.90;99.90
46037;DHT22;31769;49.304;8.428;2023-02-08T06:30:40;-2.00;99.90
46037;DHT22;31769;49.304;8.428;2023-02-08T06:33:40;-2.00;99.90
46037;DHT22;31769;49.304;8.428;2023-02-08T06:36:41;-2.00;99.90
46037;DHT22;31769;49.304;8.428;2023-02-08T06:39:41;-2.00;99.90
46037;DHT22;31769;49.304;8.428;2023-02-08T06:42:42;-2.00;99.90
46037;DHT22;31769;49.304;8.428;2023-02-08T06:45:44;-2.00;99.90
46037;DHT22;31769;49.304;8.428;2023-02-08T06:48:45;-2.00;99.90
46037;DHT22;31769;49.304;8.428;2023-02-08T06:51:46;-2.10;99.90
46037;DHT22;31769;49.304;8.428;2023-02-08T06:54:47;-2.10;99.90
46037;DHT22;31769;49.304;8.428;2023-02-08T06:57:47;-2.10;99.90
46037;DHT22;31769;49.304;8.428;2023-02-08T07:00:48;-2.10;99.90
46037;DHT22;31769;49.304;8.428;2023-02-08T07:03:49;-2.10;99.90
46037;DHT22;31769;49.304;8.428;2023-02-08T07:06:49;-2.10;99.90
46037;DHT22;31769;49.304;8.428;2023-02-08T07:09:50;-2.00;99.90
46037;DHT22;31769;49.304;8.428;2023-02-08T07:12:51;-1.90;99.90
46037;DHT22;31769;49.304;8.428;2023-02-08T07:15:51;-1.90;99.90
46037;DHT22;31769;49.304;8.428;2023-02-08T07:18:52;-1.80;99.90
46037;DHT22;31769;49.304;8.428;2023-02-08T07:21:53;-1.80;99.90
46037;DHT22;31769;49.304;8.428;2023-02-08T07:24:53;-1.70;99.90
46037;DHT22;31769;49.304;8.428;2023-02-08T07:27:54;-1.80;99.90
46037;DHT22;31769;49.304;8.428;2023-02-08T07:30:55;-1.80;99.90
46037;DHT22;31769;49.304;8.428;2023-02-08T07:33:57;-1.70;99.90
46037;DHT22;31769;49.304;8.428;2023-02-08T07:36:58;-1.80;99.90
46037;DHT22;31769;49.304;8.428;2023-02-08T07:39:59;-1.70;99.90
46037;DHT22;31769;49.304;8.428;2023-02-08T07:42:59;-1.70;99.90
46037;DHT22;31769;49.304;8.428;2023-02-08T07:46:17;-1.70;99.90
46037;DHT22;31769;49.304;8.428;2023-02-08T07:49:18;-1.60;99.90
46037;DHT22;31769;49.304;8.428;2023-02-08T07:52:19;-1.50;99.90
46037;DHT22;31769;49.304;8.428;2023-02-08T07:55:20;-1.50;99.90
46037;DHT22;31769;49.304;8.428;2023-02-08T07:58:20;-1.60;99.90
46037;DHT22;31769;49.304;8.428;2023-02-08T08:01:21;-1.70;99.90
46037;DHT22;31769;49.304;8.428;2023-02-08T08:04:22;-1.60;99.90
46037;DHT22;31769;49.304;8.428;2023-02-08T08:07:22;-1.50;99.90
46037;DHT22;31769;49.304;8.428;2023-02-08T08:10:23;-1.30;99.90
46037;DHT22;31769;49.304;8.428;2023-02-08T08:13:24;-1.20;99.90
46037;DHT22;31769;49.304;8.428;2023-02-08T08:16:24;-1.00;99.90
46037;DHT22;31769;49.304;8.428;2023-02-08T08:19:25;-0.90;99.90
46037;DHT22;31769;49.304;8.428;2023-02-08T08:22:26;-0.70;99.90
46037;DHT22;31769;49.304;8.428;2023-02-08T08:25:26;-0.50;99.90
46037;DHT22;31769;49.304;8.428;2023-02-08T08:28:27;-0.30;99.90
46037;DHT22;31769;49.304;8.428;2023-02-08T08:31:28;-0.20;99.90
46037;DHT22;31769;49.304;8.428;2023-02-08T08:34:30;0.00;99.90
46037;DHT22;31769;49.304;8.428;2023-02-08T08:37:31;0.20;99.90
46037;DHT22;31769;49.304;8.428;2023-02-08T08:40:32;0.30;99.90
46037;DHT22;31769;49.304;8.428;2023-02-08T08:43:33;0.40;99.90
46037;DHT22;31769;49.304;8.428;2023-02-08T08:46:33;0.60;99.90
46037;DHT22;31769;49.304;8.428;2023-02-08T08:49:34;0.60;99.90
46037;DHT22;31769;49.304;8.428;2023-02-08T08:52:35;0.70;99.90
46037;DHT22;31769;49.304;8.428;2023-02-08T08:55:35;0.70;99.90
46037;DHT22;31769;49.304;8.428;2023-02-08T08:58:36;0.80;99.90
46037;DHT22;31769;49.304;8.428;2023-02-08T09:01:37;0.90;99.90
46037;DHT22;31769;49.304;8.428;2023-02-08T09:04:38;1.00;99.90
46037;DHT22;31769;49.304;8.428;2023-02-08T09:07:40;1.00;99.90
46037;DHT22;31769;49.304;8.428;2023-02-08T09:10:41;1.10;99.90
46037;DHT22;31769;49.304;8.428;2023-02-08T09:13:42;1.20;99.90
46037;DHT22;31769;49.304;8.428;2023-02-08T09:16:43;1.30;99.90
46037;DHT22;31769;49.304;8.428;2023-02-08T09:19:47;1.40;99.90
46037;DHT22;31769;49.304;8.428;2023-02-08T09:22:48;1.50;99.90
46037;DHT22;31769;49.304;8.428;2023-02-08T09:25:49;1.70;99.90
46037;DHT22;31769;49.304;8.428;2023-02-08T09:28:49;1.80;99.90
46037;DHT22;31769;49.304;8.428;2023-02-08T09:31:50;2.00;99.90
46037;DHT22;31769;49.304;8.428;2023-02-08T09:34:51;2.10;99.90
46037;DHT22;31769;49.304;8.428;2023-02-08T09:37:53;2.10;99.90
46037;DHT22;31769;49.304;8.428;2023-02-08T09:48:20;2.50;99.90
46037;DHT22;31769;49.304;8.428;2023-02-08T09:51:27;2.60;99.90
46037;DHT22;31769;49.304;8.428;2023-02-08T09:54:36;2.70;99.90
46037;DHT22;31769;49.304;8.428;2023-02-08T09:57:37;2.80;99.60
46037;DHT22;31769;49.304;8.428;2023-02-08T10:00:44;2.90;99.80
46037;DHT22;31769;49.304;8.428;2023-02-08T10:03:46;2.90;99.60
46037;DHT22;31769;49.304;8.428;2023-02-08T10:06:48;3.00;98.50
46037;DHT22;31769;49.304;8.428;2023-02-08T10:09:48;3.10;98.00
46037;DHT22;31769;49.304;8.428;2023-02-08T10:13:13;3.20;98.00
46037;DHT22;31769;49.304;8.428;2023-02-08T10:26:13;3.40;95.50
46037;DHT22;31769;49.304;8.428;2023-02-08T10:29:35;3.50;95.20
46037;DHT22;31769;49.304;8.428;2023-02-08T10:35:59;3.60;95.30
46037;DHT22;31769;49.304;8.428;2023-02-08T10:39:02;3.70;95.50
46037;DHT22;31769;49.304;8.428;2023-02-08T10:42:11;3.80;94.00
46037;DHT22;31769;49.304;8.428;2023-02-08T10:45:17;3.90;94.20
46037;DHT22;31769;49.304;8.428;2023-02-08T10:51:50;3.90;93.50
46037;DHT22;31769;49.304;8.428;2023-02-08T10:54:52;4.00;92.80
46037;DHT22;31769;49.304;8.428;2023-02-08T10:57:57;4.10;92.50
46037;DHT22;31769;49.304;8.428;2023-02-08T11:01:00;4.30;91.90
46037;DHT22;31769;49.304;8.428;2023-02-08T11:07:18;4.50;91.30
46037;DHT22;31769;49.304;8.428;2023-02-08T11:10:24;4.60;91.60
46037;DHT22;31769;49.304;8.428;2023-02-08T11:16:35;4.80;91.00
46037;DHT22;31769;49.304;8.428;2023-02-08T11:19:39;5.10;90.00
46037;DHT22;31769;49.304;8.428;2023-02-08T11:22:46;5.20;87.20
46037;DHT22;31769;49.304;8.428;2023-02-08T11:25:46;5.30;88.00
46037;DHT22;31769;49.304;8.428;2023-02-08T11:29:13;5.50;86.50
46037;DHT22;31769;49.304;8.428;2023-02-08T11:32:19;5.90;84.60
46037;DHT22;31769;49.304;8.428;2023-02-08T11:35:23;6.40;82.60
46037;DHT22;31769;49.304;8.428;2023-02-08T11:38:24;6.90;80.40
46037;DHT22;31769;49.304;8.428;2023-02-08T11:41:27;7.40;77.80
46037;DHT22;31769;49.304;8.428;2023-02-08T11:44:40;7.50;76.00
46037;DHT22;31769;49.304;8.428;2023-02-08T11:47:46;7.80;76.00
46037;DHT22;31769;49.304;8.428;2023-02-08T11:50:56;8.60;72.90
46037;DHT22;31769;49.304;8.428;2023-02-08T11:53:58;8.90;69.00
46037;DHT22;31769;49.304;8.428;2023-02-08T11:57:14;9.20;68.20
46037;DHT22;31769;49.304;8.428;2023-02-08T12:00:23;10.00;64.30
46037;DHT22;31769;49.304;8.428;2023-02-08T12:03:37;10.80;62.40
46037;DHT22;31769;49.304;8.428;2023-02-08T12:06:52;11.20;60.40
46037;DHT22;31769;49.304;8.428;2023-02-08T12:13:24;13.10;54.50
46037;DHT22;31769;49.304;8.428;2023-02-08T12:23:32;19.60;42.40
46037;DHT22;31769;49.304;8.428;2023-02-08T12:33:32;23.70;36.10
46037;DHT22;31769;49.304;8.428;2023-02-08T12:43:53;28.00;32.50
46037;DHT22;31769;49.304;8.428;2023-02-08T12:50:28;29.00;30.30
46037;DHT22;31769;49.304;8.428;2023-02-08T12:53:42;29.20;30.50
46037;DHT22;31769;49.304;8.428;2023-02-08T12:56:46;30.40;29.70
46037;DHT22;31769;49.304;8.428;2023-02-08T13:00:05;31.20;29.60
46037;DHT22;31769;49.304;8.428;2023-02-08T13:06:39;31.50;28.60
46037;DHT22;31769;49.304;8.428;2023-02-08T13:13:17;32.40;28.20
46037;DHT22;31769;49.304;8.428;2023-02-08T13:16:23;32.70;28.40
46037;DHT22;31769;49.304;8.428;2023-02-08T13:19:35;33.20;28.30
46037;DHT22;31769;49.304;8.428;2023-02-08T13:22:42;33.50;28.00
46037;DHT22;31769;49.304;8.428;2023-02-08T13:25:43;33.70;27.80
46037;DHT22;31769;49.304;8.428;2023-02-08T13:28:50;33.60;27.70
46037;DHT22;31769;49.304;8.428;2023-02-08T13:31:59;34.00;27.80
46037;DHT22;31769;49.304;8.428;2023-02-08T13:38:29;34.30;27.20
46037;DHT22;31769;49.304;8.428;2023-02-08T13:41:31;34.30;27.20
46037;DHT22;31769;49.304;8.428;2023-02-08T13:44:37;33.90;27.40
46037;DHT22;31769;49.304;8.428;2023-02-08T13:47:47;34.10;27.10
46037;DHT22;31769;49.304;8.428;2023-02-08T13:50:52;33.90;27.20
46037;DHT22;31769;49.304;8.428;2023-02-08T13:56:57;34.40;27.10
46037;DHT22;31769;49.304;8.428;2023-02-08T14:00:22;34.50;27.20
46037;DHT22;31769;49.304;8.428;2023-02-08T14:03:25;34.50;26.90
46037;DHT22;31769;49.304;8.428;2023-02-08T14:06:28;34.10;26.70
46037;DHT22;31769;49.304;8.428;2023-02-08T14:13:00;34.10;26.90
46037;DHT22;31769;49.304;8.428;2023-02-08T14:19:22;34.00;27.00
46037;DHT22;31769;49.304;8.428;2023-02-08T14:22:33;34.00;26.90
46037;DHT22;31769;49.304;8.428;2023-02-08T14:25:43;34.10;26.70
46037;DHT22;31769;49.304;8.428;2023-02-08T14:28:45;33.80;26.80
46037;DHT22;31769;49.304;8.428;2023-02-08T14:31:48;34.00;26.90
46037;DHT22;31769;49.304;8.428;2023-02-08T14:34:58;34.10;26.90
46037;DHT22;31769;49.304;8.428;2023-02-08T14:41:42;33.90;26.70
46037;DHT22;31769;49.304;8.428;2023-02-08T14:44:44;33.50;26.80
46037;DHT22;31769;49.304;8.428;2023-02-08T14:47:51;33.60;26.80
46037;DHT22;31769;49.304;8.428;2023-02-08T14:54:18;33.30;26.90
46037;DHT22;31769;49.304;8.428;2023-02-08T14:57:30;33.40;26.80
46037;DHT22;31769;49.304;8.428;2023-02-08T15:00:34;33.10;26.80
46037;DHT22;31769;49.304;8.428;2023-02-08T15:03:35;32.60;26.90
46037;DHT22;31769;49.304;8.428;2023-02-08T15:09:39;32.30;27.00
46037;DHT22;31769;49.304;8.428;2023-02-08T15:12:44;31.60;27.00
46037;DHT22;31769;49.304;8.428;2023-02-08T15:15:51;32.00;27.30
46037;DHT22;31769;49.304;8.428;2023-02-08T15:18:53;31.20;27.20
46037;DHT22;31769;49.304;8.428;2023-02-08T15:21:53;31.10;27.60
46037;DHT22;31769;49.304;8.428;2023-02-08T15:24:56;30.80;27.80
46037;DHT22;31769;49.304;8.428;2023-02-08T15:28:13;30.30;28.00
46037;DHT22;31769;49.304;8.428;2023-02-08T15:31:36;29.80;28.00
46037;DHT22;31769;49.304;8.428;2023-02-08T15:34:42;29.10;28.10
46037;DHT22;31769;49.304;8.428;2023-02-08T15:37:43;28.70;28.50
46037;DHT22;31769;49.304;8.428;2023-02-08T15:41:41;28.20;28.50
46037;DHT22;31769;49.304;8.428;2023-02-08T15:44:25;27.80;28.70
46037;DHT22;31769;49.304;8.428;2023-02-08T15:47:34;27.40;29.00
46037;DHT22;31769;49.304;8.428;2023-02-08T15:50:35;26.80;29.00
46037;DHT22;31769;49.304;8.428;2023-02-08T15:53:38;26.60;29.30
46037;DHT22;31769;49.304;8.428;2023-02-08T15:56:46;26.10;29.50
46037;DHT22;31769;49.304;8.428;2023-02-08T15:59:48;25.10;29.80
46037;DHT22;31769;49.304;8.428;2023-02-08T16:02:53;24.50;30.30
46037;DHT22;31769;49.304;8.428;2023-02-08T16:05:59;23.80;30.70
46037;DHT22;31769;49.304;8.428;2023-02-08T16:09:01;22.80;31.70
46037;DHT22;31769;49.304;8.428;2023-02-08T16:12:02;21.90;32.60
46037;DHT22;31769;49.304;8.428;2023-02-08T16:15:03;20.90;33.40
46037;DHT22;31769;49.304;8.428;2023-02-08T16:18:05;20.00;34.40
46037;DHT22;31769;49.304;8.428;2023-02-08T16:21:40;18.60;35.90
46037;DHT22;31769;49.304;8.428;2023-02-08T16:24:41;17.30;37.10
46037;DHT22;31769;49.304;8.428;2023-02-08T16:27:46;15.90;38.90
46037;DHT22;31769;49.304;8.428;2023-02-08T16:30:47;14.50;40.90
46037;DHT22;31769;49.304;8.428;2023-02-08T16:33:56;13.00;43.20
46037;DHT22;31769;49.304;8.428;2023-02-08T16:36:57;11.40;45.40
46037;DHT22;31769;49.304;8.428;2023-02-08T16:40:38;10.20;48.00
46037;DHT22;31769;49.304;8.428;2023-02-08T16:43:39;9.20;50.20
46037;DHT22;31769;49.304;8.428;2023-02-08T16:46:43;8.40;52.10
46037;DHT22;31769;49.304;8.428;2023-02-08T16:49:44;7.90;53.60
46037;DHT22;31769;49.304;8.428;2023-02-08T16:53:14;7.50;54.70
46037;DHT22;31769;49.304;8.428;2023-02-08T16:56:15;7.10;55.90
46037;DHT22;31769;49.304;8.428;2023-02-08T16:59:16;6.80;56.90
46037;DHT22;31769;49.304;8.428;2023-02-08T17:02:16;6.60;57.70
46037;DHT22;31769;49.304;8.428;2023-02-08T17:05:18;6.30;58.60
46037;DHT22;31769;49.304;8.428;2023-02-08T17:08:20;6.10;59.50
46037;DHT22;31769;49.304;8.428;2023-02-08T17:11:21;5.90;60.30
46037;DHT22;31769;49.304;8.428;2023-02-08T17:14:22;5.70;60.80
46037;DHT22;31769;49.304;8.428;2023-02-08T17:17:22;5.60;61.30
46037;DHT22;31769;49.304;8.428;2023-02-08T17:20:29;5.50;62.20
46037;DHT22;31769;49.304;8.428;2023-02-08T17:23:30;5.40;62.90
46037;DHT22;31769;49.304;8.428;2023-02-08T17:26:36;5.90;64.30
46037;DHT22;31769;49.304;8.428;2023-02-08T17:29:39;5.10;64.80
46037;DHT22;31769;49.304;8.428;2023-02-08T17:32:40;5.00;66.20
46037;DHT22;31769;49.304;8.428;2023-02-08T17:35:41;5.00;67.00
46037;DHT22;31769;49.304;8.428;2023-02-08T17:38:43;4.90;67.90
46037;DHT22;31769;49.304;8.428;2023-02-08T17:41:44;4.80;69.10
46037;DHT22;31769;49.304;8.428;2023-02-08T17:44:45;4.70;70.50
46037;DHT22;31769;49.304;8.428;2023-02-08T17:47:46;4.60;71.40
46037;DHT22;31769;49.304;8.428;2023-02-08T17:50:46;4.60;73.20
46037;DHT22;31769;49.304;8.428;2023-02-08T17:53:50;4.50;74.90
46037;DHT22;31769;49.304;8.428;2023-02-08T17:56:51;4.40;76.60
46037;DHT22;31769;49.304;8.428;2023-02-08T17:59:56;4.40;78.70
46037;DHT22;31769;49.304;8.428;2023-02-08T18:02:56;4.30;79.90
46037;DHT22;31769;49.304;8.428;2023-02-08T18:05:58;4.20;81.80
46037;DHT22;31769;49.304;8.428;2023-02-08T18:08:59;4.10;84.10
46037;DHT22;31769;49.304;8.428;2023-02-08T18:12:00;4.00;85.10
46037;DHT22;31769;49.304;8.428;2023-02-08T18:15:01;4.00;85.70
46037;DHT22;31769;49.304;8.428;2023-02-08T18:18:03;4.00;87.50
46037;DHT22;31769;49.304;8.428;2023-02-08T18:21:12;3.90;88.60
46037;DHT22;31769;49.304;8.428;2023-02-08T18:24:13;3.80;90.10
46037;DHT22;31769;49.304;8.428;2023-02-08T18:27:13;3.70;90.60
46037;DHT22;31769;49.304;8.428;2023-02-08T18:30:15;3.70;91.40
46037;DHT22;31769;49.304;8.428;2023-02-08T18:33:15;3.60;91.90
46037;DHT22;31769;49.304;8.428;2023-02-08T18:36:18;3.60;92.50
46037;DHT22;31769;49.304;8.428;2023-02-08T18:39:19;3.60;92.90
46037;DHT22;31769;49.304;8.428;2023-02-08T18:42:22;3.50;93.20
46037;DHT22;31769;49.304;8.428;2023-02-08T18:45:23;3.50;94.30
46037;DHT22;31769;49.304;8.428;2023-02-08T18:48:23;3.40;94.70
46037;DHT22;31769;49.304;8.428;2023-02-08T18:51:25;3.40;95.00
46037;DHT22;31769;49.304;8.428;2023-02-08T18:54:25;3.30;95.50
46037;DHT22;31769;49.304;8.428;2023-02-08T18:57:26;3.30;96.60
46037;DHT22;31769;49.304;8.428;2023-02-08T19:00:27;3.20;96.60
46037;DHT22;31769;49.304;8.428;2023-02-08T19:03:28;3.20;96.80
46037;DHT22;31769;49.304;8.428;2023-02-08T19:06:30;3.20;97.00
46037;DHT22;31769;49.304;8.428;2023-02-08T19:09:35;3.10;97.60
46037;DHT22;31769;49.304;8.428;2023-02-08T19:12:36;3.10;98.20
46037;DHT22;31769;49.304;8.428;2023-02-08T19:15:39;2.80;98.60
46037;DHT22;31769;49.304;8.428;2023-02-08T19:18:40;3.00;99.00
46037;DHT22;31769;49.304;8.428;2023-02-08T19:21:40;3.00;99.00
46037;DHT22;31769;49.304;8.428;2023-02-08T19:24:41;3.00;99.70
46037;DHT22;31769;49.304;8.428;2023-02-08T19:27:42;2.90;99.80
46037;DHT22;31769;49.304;8.428;2023-02-08T19:30:43;2.90;99.90
46037;DHT22;31769;49.304;8.428;2023-02-08T19:33:45;2.80;99.90
46037;DHT22;31769;49.304;8.428;2023-02-08T19:36:48;2.80;99.90
46037;DHT22;31769;49.304;8.428;2023-02-08T19:39:50;2.80;99.90
46037;DHT22;31769;49.304;8.428;2023-02-08T19:42:51;2.70;99.90
46037;DHT22;31769;49.304;8.428;2023-02-08T19:45:52;2.60;99.90
46037;DHT22;31769;49.304;8.428;2023-02-08T19:48:55;2.60;99.90
46037;DHT22;31769;49.304;8.428;2023-02-08T19:51:56;3.20;99.90
46037;DHT22;31769;49.304;8.428;2023-02-08T19:54:57;2.50;99.90
46037;DHT22;31769;49.304;8.428;2023-02-08T19:57:57;2.40;99.90
46037;DHT22;31769;49.304;8.428;2023-02-08T20:00:58;2.40;99.90
46037;DHT22;31769;49.304;8.428;2023-02-08T20:03:59;2.30;99.90
46037;DHT22;31769;49.304;8.428;2023-02-08T20:07:01;2.30;99.90
46037;DHT22;31769;49.304;8.428;2023-02-08T20:10:01;2.20;99.90
46037;DHT22;31769;49.304;8.428;2023-02-08T20:13:02;2.20;99.90
46037;DHT22;31769;49.304;8.428;2023-02-08T20:16:03;2.70;99.90
46037;DHT22;31769;49.304;8.428;2023-02-08T20:19:04;2.10;99.90
46037;DHT22;31769;49.304;8.428;2023-02-08T20:22:04;2.00;99.90
46037;DHT22;31769;49.304;8.428;2023-02-08T20:25:05;2.00;99.90
46037;DHT22;31769;49.304;8.428;2023-02-08T20:28:06;2.00;99.90
46037;DHT22;31769;49.304;8.428;2023-02-08T20:31:18;2.00;99.90
46037;DHT22;31769;49.304;8.428;2023-02-08T20:34:19;2.20;99.90
46037;DHT22;31769;49.304;8.428;2023-02-08T20:37:20;1.90;99.90
46037;DHT22;31769;49.304;8.428;2023-02-08T20:40:22;1.80;99.90
46037;DHT22;31769;49.304;8.428;2023-02-08T20:43:22;1.80;99.90
46037;DHT22;31769;49.304;8.428;2023-02-08T20:46:28;1.80;99.90
46037;DHT22;31769;49.304;8.428;2023-02-08T20:49:33;1.70;99.90
46037;DHT22;31769;49.304;8.428;2023-02-08T20:52:33;1.70;99.90
46037;DHT22;31769;49.304;8.428;2023-02-08T20:55:34;1.70;99.90
46037;DHT22;31769;49.304;8.428;2023-02-08T20:58:39;1.70;99.90
46037;DHT22;31769;49.304;8.428;2023-02-08T21:01:40;1.60;99.90
46037;DHT22;31769;49.304;8.428;2023-02-08T21:04:41;1.60;99.90
46037;DHT22;31769;49.304;8.428;2023-02-08T21:07:42;2.40;99.90
46037;DHT22;31769;49.304;8.428;2023-02-08T21:10:42;1.60;99.90
46037;DHT22;31769;49.304;8.428;2023-02-08T21:13:43;1.50;99.90
46037;DHT22;31769;49.304;8.428;2023-02-08T21:16:48;1.50;99.90
46037;DHT22;31769;49.304;8.428;2023-02-08T21:19:50;1.40;99.90
46037;DHT22;31769;49.304;8.428;2023-02-08T21:22:50;1.40;99.90
46037;DHT22;31769;49.304;8.428;2023-02-08T21:25:51;1.40;99.90